Time;durP1;ratioP1;P1;durP2;ratioP2;P2;SDS_P1;SDS_P2;PMS_P1;PMS_P2;Temp;Humidity;BMP_temperature;BMP_pressure;BME280_temperature;BME280_humidity;BME280_pressure;Samples;Min_cycle;Max_cycle;Signal;HPM_P1;HPM_P2
2022/02/14 00:01:53;;;;;;;10.10;3.00;;;9.60;77.00;;;;;;5035881;28;20484;-78
2022/02/14 00:04:19;;;;;;;13.33;4.10;;;9.60;77.20;;;;;;5053297;28;20036;-78
2022/02/14 00:06:44;;;;;;;10.43;3.37;;;9.60;77.20;;;;;;5053211;28;20025;-77
2022/02/14 00:09:10;;;;;;;8.93;3.10;;;9.60;77.90;;;;;;5019189;28;20044;-78
2022/02/14 00:11:36;;;;;;;9.77;3.27;;;9.70;77.50;;;;;;5053467;28;20444;-78
2022/02/14 00:14:01;;;;;;;8.23;2.90;;;9.60;77.60;;;;;;5053372;28;20025;-78
2022/02/14 00:16:27;;;;;;;11.23;2.90;;;9.60;77.70;;;;;;5035453;28;20473;-78
2022/02/14 00:18:53;;;;;;;11.53;3.43;;;9.60;77.70;;;;;;5035245;28;20032;-78
2022/02/14 00:21:18;;;;;;;8.27;2.63;;;9.60;77.90;;;;;;5035597;28;20500;-78
2022/02/14 00:23:44;;;;;;;9.43;2.53;;;9.50;78.00;;;;;;5053269;28;20037;-78
2022/02/14 00:26:09;;;;;;;16.57;3.50;;;9.60;78.00;;;;;;5053690;28;20061;-78
2022/02/14 00:28:35;;;;;;;8.90;2.90;;;9.60;78.10;;;;;;5035183;28;20116;-78
2022/02/14 00:31:01;;;;;;;9.10;3.20;;;9.70;78.30;;;;;;5053320;28;20026;-78
2022/02/14 00:33:27;;;;;;;9.67;3.03;;;9.70;78.30;;;;;;5053449;28;20021;-77
2022/02/14 00:35:53;;;;;;;7.43;2.90;;;9.70;79.10;;;;;;5053367;28;20493;-78
2022/02/14 00:38:20;;;;;;;11.60;2.87;;;9.70;79.00;;;;;;5053381;28;20068;-78
2022/02/14 00:40:45;;;;;;;6.73;2.70;;;9.80;78.50;;;;;;5053125;28;20370;-78
2022/02/14 00:43:12;;;;;;;9.53;2.77;;;9.90;78.50;;;;;;5053064;28;20023;-78
2022/02/14 00:45:38;;;;;;;11.67;2.90;;;9.90;78.60;;;;;;5052878;28;20017;-77
2022/02/14 00:48:05;;;;;;;7.70;2.93;;;9.90;78.60;;;;;;5037928;28;20025;-78
2022/02/14 00:50:31;;;;;;;8.53;2.97;;;9.90;78.50;;;;;;5056758;28;20029;-78
2022/02/14 00:52:56;;;;;;;10.17;2.03;;;10.00;78.60;;;;;;5022342;28;20040;-78
2022/02/14 00:55:22;;;;;;;7.90;2.47;;;10.00;78.50;;;;;;5039031;28;20032;-77
2022/02/14 00:57:49;;;;;;;7.83;2.30;;;10.10;78.60;;;;;;5038654;28;20025;-77
2022/02/14 01:00:16;;;;;;;11.90;2.70;;;10.10;78.50;;;;;;5056756;28;20523;-78
2022/02/14 01:02:42;;;;;;;10.47;2.57;;;10.10;78.40;;;;;;5057037;28;20151;-78
2022/02/14 01:05:09;;;;;;;8.60;2.83;;;10.10;78.40;;;;;;5056613;28;20032;-78
2022/02/14 01:07:35;;;;;;;6.67;2.40;;;10.10;78.40;;;;;;5056557;28;20056;-78
2022/02/14 01:10:01;;;;;;;6.87;2.50;;;10.10;78.40;;;;;;5056568;28;20110;-78
2022/02/14 01:12:30;;;;;;;8.90;2.73;;;10.10;78.40;;;;;;5056657;28;20457;-78
2022/02/14 01:14:56;;;;;;;7.97;3.00;;;10.20;78.50;;;;;;5022220;28;20036;-78
2022/02/14 01:17:22;;;;;;;6.63;2.20;;;10.20;78.50;;;;;;5038377;28;20420;-79
2022/02/14 01:19:47;;;;;;;8.83;2.50;;;10.20;78.50;;;;;;5038258;28;20024;-78
2022/02/14 01:22:13;;;;;;;8.47;2.47;;;10.10;78.40;;;;;;5056240;28;20053;-78
2022/02/14 01:24:40;;;;;;;5.83;2.43;;;10.20;78.50;;;;;;5056107;28;20075;-78
2022/02/14 01:27:05;;;;;;;7.33;1.83;;;10.20;78.60;;;;;;5056064;28;20477;-78
2022/02/14 01:29:32;;;;;;;10.90;2.33;;;10.20;78.60;;;;;;5021694;28;20029;-78
2022/02/14 01:31:59;;;;;;;10.20;2.50;;;10.20;78.50;;;;;;5056083;28;20079;-78
2022/02/14 01:34:24;;;;;;;6.43;2.37;;;10.20;78.60;;;;;;5055967;28;20028;-78
2022/02/14 01:36:50;;;;;;;6.63;2.27;;;10.20;78.60;;;;;;5055775;28;20029;-78
2022/02/14 01:39:16;;;;;;;7.93;2.50;;;10.30;78.70;;;;;;5037994;28;20025;-78
2022/02/14 01:41:43;;;;;;;6.17;1.90;;;10.30;78.70;;;;;;5038013;28;20367;-78
2022/02/14 01:44:31;;;;;;;8.00;2.00;;;10.30;79.30;;;;;;5038044;28;20100;-78
2022/02/14 01:46:57;;;;;;;5.50;2.27;;;10.20;78.60;;;;;;5056011;28;20021;-78
2022/02/14 01:49:22;;;;;;;8.30;2.70;;;10.20;78.60;;;;;;5055896;28;20541;-78
2022/02/14 01:51:48;;;;;;;7.37;2.50;;;10.30;78.70;;;;;;5037924;28;20044;-78
2022/02/14 01:54:14;;;;;;;8.80;2.13;;;10.30;78.80;;;;;;5055508;28;20060;-78
2022/02/14 01:56:40;;;;;;;7.87;1.93;;;10.20;78.70;;;;;;5037729;28;20036;-78
2022/02/14 01:59:06;;;;;;;8.20;2.03;;;10.20;78.70;;;;;;5054421;28;20061;-78
2022/02/14 02:01:31;;;;;;;7.93;1.73;;;10.20;78.80;;;;;;5055846;28;20053;-78
2022/02/14 02:03:57;;;;;;;7.20;2.10;;;10.20;78.90;;;;;;5037091;28;20037;-78
2022/02/14 02:06:23;;;;;;;9.93;2.10;;;10.30;79.00;;;;;;5055097;28;20163;-78
2022/02/14 02:08:49;;;;;;;4.87;1.60;;;10.40;79.00;;;;;;5055436;28;20044;-78
2022/02/14 02:13:59;;;;;;;8.73;2.20;;;10.30;79.00;;;;;;5055664;28;20038;-78
2022/02/14 02:16:25;;;;;;;6.47;2.23;;;10.30;79.00;;;;;;5037567;28;20369;-83
2022/02/14 02:18:50;;;;;;;6.87;2.07;;;10.30;78.90;;;;;;5037604;28;20044;-78
2022/02/14 02:21:16;;;;;;;5.60;1.57;;;10.40;79.00;;;;;;5037282;28;20491;-78
2022/02/14 02:23:42;;;;;;;5.80;1.90;;;10.30;78.80;;;;;;5055041;28;20029;-78
2022/02/14 02:26:08;;;;;;;5.20;1.73;;;10.40;78.90;;;;;;5037157;28;20183;-78
2022/02/14 02:28:34;;;;;;;8.33;2.37;;;10.40;78.80;;;;;;5055355;28;20037;-79
2022/02/14 02:31:03;;;;;;;11.33;1.63;;;10.40;78.80;;;;;;5037103;28;20029;-78
2022/02/14 02:33:30;;;;;;;9.47;1.90;;;10.40;78.70;;;;;;5055135;28;20029;-77
2022/02/14 02:35:56;;;;;;;7.30;1.90;;;10.40;78.70;;;;;;5054815;28;20535;-78
2022/02/14 02:38:23;;;;;;;6.70;1.87;;;10.40;78.70;;;;;;5055057;28;20032;-78
2022/02/14 02:40:49;;;;;;;9.23;1.77;;;10.50;78.70;;;;;;5054968;28;20124;-78
2022/02/14 02:43:16;;;;;;;5.70;1.70;;;10.40;78.70;;;;;;5055043;28;20448;-78
2022/02/14 02:45:43;;;;;;;14.07;2.77;;;10.40;78.60;;;;;;5054551;28;20052;-78
2022/02/14 02:48:09;;;;;;;6.60;1.23;;;10.40;78.60;;;;;;5054894;28;20111;-78
2022/02/14 02:50:35;;;;;;;8.60;1.70;;;10.50;78.60;;;;;;5054629;28;20413;-78
2022/02/14 02:53:00;;;;;;;8.30;1.57;;;10.50;78.60;;;;;;5054222;28;20037;-78
2022/02/14 02:55:26;;;;;;;7.50;1.67;;;10.50;78.60;;;;;;5036264;28;20028;-78
2022/02/14 02:57:52;;;;;;;5.97;1.53;;;10.50;78.60;;;;;;5054630;28;20079;-78
2022/02/14 03:00:18;;;;;;;8.30;1.93;;;10.50;78.60;;;;;;5054433;28;20116;-78
2022/02/14 03:02:43;;;;;;;11.03;1.90;;;10.50;78.60;;;;;;5036631;28;20033;-78
2022/02/14 03:05:09;;;;;;;7.30;1.80;;;10.50;78.50;;;;;;5054394;28;20041;-78
2022/02/14 03:07:34;;;;;;;7.20;1.60;;;10.50;78.50;;;;;;5054178;28;20064;-78
2022/02/14 03:10:00;;;;;;;6.17;1.20;;;10.50;78.60;;;;;;5053832;28;20097;-78
2022/02/14 03:12:26;;;;;;;5.27;1.50;;;10.60;78.60;;;;;;5036664;28;20163;-77
2022/02/14 03:14:52;;;;;;;4.80;1.67;;;10.40;78.50;;;;;;5036181;28;20029;-78
2022/02/14 03:17:18;;;;;;;7.57;1.53;;;10.40;78.60;;;;;;5054050;28;20539;-78
2022/02/14 03:19:44;;;;;;;9.97;1.40;;;10.40;78.70;;;;;;5053957;28;20033;-78
2022/02/14 03:22:09;;;;;;;6.60;1.63;;;10.40;78.70;;;;;;5054405;28;20488;-78
2022/02/14 03:24:35;;;;;;;4.77;1.40;;;10.40;78.70;;;;;;5054159;28;20033;-78
2022/02/14 03:27:02;;;;;;;6.60;1.40;;;10.40;78.70;;;;;;5054130;28;20435;-78
2022/02/14 03:29:28;;;;;;;7.43;1.97;;;10.40;78.70;;;;;;5053954;28;20469;-78
2022/02/14 03:31:54;;;;;;;9.07;2.53;;;10.50;78.80;;;;;;5036257;28;20029;-78
2022/02/14 03:34:20;;;;;;;7.27;1.50;;;10.50;78.80;;;;;;5036251;28;20388;-78
2022/02/14 03:36:46;;;;;;;9.10;1.60;;;10.50;78.80;;;;;;5053915;28;20043;-78
2022/02/14 03:39:12;;;;;;;8.73;2.00;;;10.40;78.70;;;;;;5054022;28;20100;-78
2022/02/14 03:41:38;;;;;;;7.77;1.77;;;10.50;78.70;;;;;;5053997;28;20028;-77
2022/02/14 03:44:04;;;;;;;4.60;1.30;;;10.50;78.70;;;;;;5036069;28;20090;-78
2022/02/14 03:46:29;;;;;;;8.43;1.30;;;10.50;78.70;;;;;;5053795;28;20040;-77
2022/02/14 03:48:56;;;;;;;9.93;1.80;;;10.50;78.60;;;;;;5035697;28;20116;-78
2022/02/14 03:51:21;;;;;;;9.60;1.40;;;10.60;78.60;;;;;;5036044;28;20029;-78
2022/02/14 03:53:48;;;;;;;6.80;1.30;;;10.60;78.50;;;;;;5053589;28;20056;-78
2022/02/14 03:56:13;;;;;;;4.80;1.50;;;10.60;78.40;;;;;;5053389;28;20040;-78
2022/02/14 03:58:39;;;;;;;5.97;1.10;;;10.60;78.40;;;;;;5053670;28;20063;-78
2022/02/14 04:01:05;;;;;;;4.67;1.20;;;10.60;78.20;;;;;;5053626;28;20032;-78
2022/02/14 04:03:30;;;;;;;3.97;1.30;;;10.60;78.10;;;;;;5053365;28;20033;-78
2022/02/14 04:05:56;;;;;;;6.80;1.50;;;10.70;78.00;;;;;;5035727;28;20043;-78
2022/02/14 04:08:22;;;;;;;7.40;1.80;;;10.70;77.90;;;;;;5053284;28;20041;-78
2022/02/14 04:10:48;;;;;;;3.60;1.10;;;10.80;77.90;;;;;;5053457;28;20033;-79
2022/02/14 04:13:13;;;;;;;7.47;1.40;;;10.80;77.70;;;;;;5053666;28;20040;-79
2022/02/14 04:15:39;;;;;;;7.37;1.60;;;10.80;77.60;;;;;;5053253;28;20025;-79
2022/02/14 04:18:06;;;;;;;6.57;1.67;;;10.80;77.60;;;;;;5053242;28;20047;-78
2022/02/14 04:20:32;;;;;;;6.03;1.33;;;10.90;77.40;;;;;;5053545;28;20037;-78
2022/02/14 04:22:58;;;;;;;6.77;1.30;;;10.90;77.30;;;;;;5038220;28;20033;-79
2022/02/14 04:25:24;;;;;;;5.33;1.73;;;10.90;77.10;;;;;;5039770;28;20036;-79
2022/02/14 04:27:49;;;;;;;6.67;1.70;;;11.00;77.10;;;;;;5057149;28;20470;-78
2022/02/14 04:30:15;;;;;;;6.35;1.33;;;11.00;77.10;;;;;;5057289;28;20025;-79
2022/02/14 04:32:41;;;;;;;9.23;1.53;;;11.00;76.90;;;;;;5022948;28;20049;-78
2022/02/14 04:35:08;;;;;;;4.53;1.38;;;11.10;77.00;;;;;;5056990;28;20408;-80
2022/02/14 04:37:34;;;;;;;5.37;1.30;;;11.00;76.90;;;;;;5056880;28;20037;-80
2022/02/14 04:39:59;;;;;;;9.63;1.60;;;11.00;76.80;;;;;;5057165;28;20047;-78
2022/02/14 04:42:25;;;;;;;9.85;1.58;;;11.10;76.80;;;;;;5057203;28;20045;-78
2022/02/14 04:44:51;;;;;;;4.57;1.10;;;11.00;76.70;;;;;;5056852;28;20064;-78
2022/02/14 04:47:16;;;;;;;6.47;1.30;;;11.00;76.70;;;;;;5056879;28;20040;-80
2022/02/14 04:49:42;;;;;;;5.82;1.23;;;11.00;76.70;;;;;;5038989;28;20488;-78
2022/02/14 04:52:07;;;;;;;7.00;1.37;;;11.10;76.70;;;;;;5056655;28;20032;-78
2022/02/14 04:54:33;;;;;;;9.27;1.60;;;11.10;76.70;;;;;;5056990;28;20040;-78
2022/02/14 04:56:59;;;;;;;6.45;1.35;;;11.00;76.60;;;;;;5056941;28;20036;-78
2022/02/14 04:59:24;;;;;;;6.55;1.20;;;11.00;76.70;;;;;;5039048;28;20037;-79
2022/02/14 05:01:50;;;;;;;4.57;1.60;;;11.00;76.50;;;;;;5038809;28;20111;-78
2022/02/14 05:04:20;;;;;;;7.10;1.50;;;11.00;76.50;;;;;;5056630;28;20037;-81
2022/02/14 05:06:46;;;;;;;5.27;1.20;;;11.10;76.50;;;;;;5022546;28;20086;-78
2022/02/14 05:09:11;;;;;;;4.80;1.20;;;11.10;76.50;;;;;;5038626;28;20037;-78
2022/02/14 05:11:37;;;;;;;7.43;1.50;;;11.10;76.50;;;;;;5022220;28;20112;-78
2022/02/14 05:14:03;;;;;;;6.83;1.60;;;11.10;76.50;;;;;;5056548;28;20451;-78
2022/02/14 05:16:29;;;;;;;6.30;1.67;;;11.10;76.40;;;;;;5056398;28;20025;-78
2022/02/14 05:18:55;;;;;;;6.13;1.10;;;11.10;76.40;;;;;;5038429;28;20060;-78
2022/02/14 05:21:21;;;;;;;5.57;0.90;;;11.10;76.40;;;;;;5056050;28;20032;-78
2022/02/14 05:23:47;;;;;;;4.47;1.20;;;11.10;76.50;;;;;;5056196;28;20089;-79
2022/02/14 05:26:13;;;;;;;5.60;1.00;;;11.10;77.00;;;;;;5056290;28;20041;-78
2022/02/14 05:28:39;;;;;;;7.70;1.30;;;11.10;76.40;;;;;;5056229;28;20033;-80
2022/02/14 05:31:05;;;;;;;4.97;1.30;;;11.10;76.30;;;;;;5038383;28;20052;-79
2022/02/14 05:33:31;;;;;;;2.60;1.10;;;11.20;76.30;;;;;;5055791;28;20037;-78
2022/02/14 05:35:57;;;;;;;8.35;1.23;;;11.20;76.40;;;;;;5056167;28;20426;-79
2022/02/14 05:38:23;;;;;;;6.32;1.20;;;11.20;76.30;;;;;;5056316;28;20473;-78
2022/02/14 05:40:48;;;;;;;5.70;0.97;;;11.10;76.30;;;;;;5055926;28;20029;-78
2022/02/14 05:43:15;;;;;;;7.50;1.30;;;11.20;76.40;;;;;;5038198;28;20086;-79
2022/02/14 05:45:41;;;;;;;3.83;0.87;;;11.20;76.50;;;;;;5038240;28;20029;-78
2022/02/14 05:48:07;;;;;;;7.82;1.45;;;11.20;76.50;;;;;;5056012;28;20033;-78
2022/02/14 05:50:32;;;;;;;4.90;1.15;;;11.20;76.50;;;;;;5055864;28;20025;-78
2022/02/14 05:52:58;;;;;;;9.07;1.37;;;11.20;76.50;;;;;;5038095;28;20044;-76
2022/02/14 05:55:23;;;;;;;3.77;1.30;;;11.20;76.60;;;;;;5055921;28;20029;-78
2022/02/14 05:57:49;;;;;;;3.63;0.93;;;11.20;76.60;;;;;;5055575;28;20377;-83
2022/02/14 06:00:15;;;;;;;4.77;1.17;;;11.20;76.70;;;;;;5037694;28;20036;-79
2022/02/14 06:02:41;;;;;;;4.83;1.00;;;11.20;76.70;;;;;;5021397;28;20029;-79
2022/02/14 06:05:07;;;;;;;2.70;0.93;;;11.20;76.80;;;;;;5037968;28;20033;-80
2022/02/14 06:07:32;;;;;;;3.60;0.90;;;11.20;76.90;;;;;;5055263;28;20060;-79
2022/02/14 06:09:59;;;;;;;3.65;1.00;;;11.20;77.00;;;;;;5037560;28;20029;-78
2022/02/14 06:12:24;;;;;;;6.47;1.23;;;11.20;77.10;;;;;;5055627;28;20063;-78
2022/02/14 06:14:50;;;;;;;5.35;0.93;;;11.20;77.30;;;;;;5055529;28;20479;-78
2022/02/14 06:17:16;;;;;;;4.20;0.90;;;11.20;77.40;;;;;;5037265;28;20083;-77
2022/02/14 06:19:42;;;;;;;4.13;0.80;;;11.20;77.50;;;;;;5055135;28;20473;-79
2022/02/14 06:22:08;;;;;;;4.38;1.00;;;11.20;77.60;;;;;;5055316;28;20032;-78
2022/02/14 06:24:33;;;;;;;2.47;0.70;;;11.20;77.60;;;;;;5046029;28;20086;-76
2022/02/14 06:26:59;;;;;;;5.30;1.17;;;11.20;77.70;;;;;;5055103;28;20083;-78
2022/02/14 06:29:24;;;;;;;7.50;1.00;;;11.10;77.80;;;;;;5049805;28;20037;-78
2022/02/14 06:31:50;;;;;;;4.40;1.20;;;11.20;78.00;;;;;;5055096;28;20056;-78
2022/02/14 06:34:16;;;;;;;7.13;1.03;;;11.20;78.20;;;;;;5037423;28;20423;-78
2022/02/14 06:36:41;;;;;;;2.60;1.33;;;11.10;78.40;;;;;;5054405;28;20055;-78
2022/02/14 06:39:09;;;;;;;5.35;1.20;;;11.10;78.50;;;;;;5020529;28;20120;-79
2022/02/14 06:41:35;;;;;;;5.25;1.30;;;11.10;79.20;;;;;;5054588;28;20032;-78
2022/02/14 06:44:00;;;;;;;5.50;1.10;;;11.10;78.80;;;;;;5037145;28;20033;-78
2022/02/14 06:46:26;;;;;;;3.93;1.00;;;11.10;78.90;;;;;;5036139;28;20111;-79
2022/02/14 06:48:52;;;;;;;5.57;1.10;;;11.10;79.00;;;;;;5036884;28;20033;-78
2022/02/14 06:51:18;;;;;;;4.75;0.77;;;11.10;79.20;;;;;;5054683;28;20037;-79
2022/02/14 06:53:44;;;;;;;7.30;1.10;;;11.10;79.30;;;;;;5019901;28;20059;-80
2022/02/14 06:56:11;;;;;;;3.77;1.10;;;11.10;79.30;;;;;;5054153;28;20485;-79
2022/02/14 06:58:37;;;;;;;5.10;0.90;;;11.20;79.50;;;;;;5054204;28;20052;-80
2022/02/14 07:01:04;;;;;;;8.90;1.17;;;11.20;79.60;;;;;;5054153;28;20025;-78
2022/02/14 07:03:30;;;;;;;2.10;0.83;;;11.20;79.80;;;;;;5053984;28;20673;-79
2022/02/14 07:05:57;;;;;;;4.63;1.10;;;11.20;80.50;;;;;;5053721;28;20041;-78
2022/02/14 07:08:22;;;;;;;3.60;0.80;;;11.20;80.10;;;;;;5051250;28;20079;-79
2022/02/14 07:10:48;;;;;;;5.27;1.73;;;11.20;80.20;;;;;;5047570;28;20068;-78
2022/02/14 07:13:14;;;;;;;4.03;0.90;;;11.20;80.30;;;;;;5053932;28;20079;-78
2022/02/14 07:15:39;;;;;;;2.55;0.82;;;11.20;80.40;;;;;;5035325;28;20025;-78
2022/02/14 07:18:11;;;;;;;2.47;0.77;;;11.20;80.50;;;;;;5053825;28;20116;-80
2022/02/14 07:20:36;;;;;;;5.47;1.00;;;11.30;81.20;;;;;;5035207;28;20036;-79
2022/02/14 07:23:02;;;;;;;4.95;0.90;;;11.20;80.60;;;;;;5035855;28;20033;-80
2022/02/14 07:25:28;;;;;;;5.93;1.30;;;11.30;80.80;;;;;;5019141;28;20412;-78
2022/02/14 07:27:55;;;;;;;2.83;0.98;;;11.30;80.80;;;;;;5053161;28;20338;-79
2022/02/14 07:30:20;;;;;;;3.30;0.97;;;11.30;81.50;;;;;;5035859;28;20029;-79
2022/02/14 07:32:46;;;;;;;3.53;1.20;;;11.40;81.00;;;;;;5035911;28;20032;-78
2022/02/14 07:35:13;;;;;;;3.95;0.88;;;11.40;81.20;;;;;;5053934;28;20036;-81
2022/02/14 07:37:39;;;;;;;5.43;1.10;;;11.40;81.50;;;;;;5053906;28;20029;-80
2022/02/14 07:40:06;;;;;;;5.03;1.17;;;11.40;82.40;;;;;;5053757;28;20037;-78
2022/02/14 07:42:33;;;;;;;6.50;1.00;;;11.40;82.90;;;;;;5053703;28;20021;-78
2022/02/14 07:44:59;;;;;;;4.30;1.13;;;11.40;83.80;;;;;;5035968;28;20021;-77
2022/02/14 07:47:24;;;;;;;4.80;1.48;;;11.40;83.80;;;;;;5035696;28;20063;-82
2022/02/14 07:49:51;;;;;;;5.87;1.00;;;11.50;84.00;;;;;;5035600;28;20057;-80
2022/02/14 07:52:17;;;;;;;3.78;1.00;;;11.40;84.40;;;;;;5035439;28;20381;-77
2022/02/14 07:54:42;;;;;;;6.57;1.30;;;11.40;84.40;;;;;;5035431;28;20069;-78
2022/02/14 07:57:08;;;;;;;3.50;1.00;;;11.40;84.70;;;;;;5053927;28;20067;-78
2022/02/14 07:59:34;;;;;;;2.30;1.08;;;11.40;84.70;;;;;;5035491;28;20025;-78
2022/02/14 08:01:59;;;;;;;3.87;1.03;;;11.40;84.50;;;;;;5019072;28;20060;-80
2022/02/14 08:04:25;;;;;;;4.63;0.83;;;11.40;84.40;;;;;;5035221;28;20021;-79
2022/02/14 08:06:51;;;;;;;2.10;0.73;;;11.40;84.30;;;;;;5053094;28;20029;-78
2022/02/14 08:09:17;;;;;;;6.63;1.52;;;11.40;84.10;;;;;;5034786;28;20125;-79
2022/02/14 08:11:43;;;;;;;3.10;0.93;;;11.50;84.10;;;;;;5052884;28;20028;-80
2022/02/14 08:14:09;;;;;;;7.50;0.60;;;11.50;84.10;;;;;;5018956;28;20032;-80
2022/02/14 08:16:35;;;;;;;1.83;0.40;;;11.50;89.20;;;;;;5018898;28;20025;-80
2022/02/14 08:19:01;;;;;;;1.37;0.40;;;11.20;90.80;;;;;;5035492;28;20052;-80
2022/02/14 08:21:29;;;;;;;0.90;0.30;;;10.80;92.30;;;;;;5053133;28;20061;-83
2022/02/14 08:23:55;;;;;;;2.17;0.70;;;10.50;93.50;;;;;;5053148;28;20053;-82
2022/02/14 08:26:21;;;;;;;3.37;0.70;;;10.20;94.70;;;;;;5035513;28;20067;-77
2022/02/14 08:28:47;;;;;;;2.80;0.80;;;10.00;95.80;;;;;;5034543;28;20037;-80
2022/02/14 08:31:12;;;;;;;2.67;1.10;;;9.80;97.00;;;;;;5053142;28;20036;-76
2022/02/14 08:33:38;;;;;;;2.73;0.90;;;9.70;97.40;;;;;;5053362;28;20048;-77
2022/02/14 08:36:05;;;;;;;1.60;0.60;;;9.60;98.00;;;;;;5053070;28;20029;-79
2022/02/14 08:38:31;;;;;;;2.30;0.90;;;9.50;98.90;;;;;;5053236;28;20025;-78
2022/02/14 08:40:57;;;;;;;1.83;0.60;;;9.40;99.20;;;;;;5053580;28;20029;-77
2022/02/14 08:43:23;;;;;;;1.30;0.50;;;9.30;99.60;;;;;;5053023;28;20120;-79
2022/02/14 08:45:49;;;;;;;3.53;0.50;;;9.30;99.90;;;;;;5052938;28;20056;-79
2022/02/14 08:48:15;;;;;;;1.20;0.30;;;9.30;99.90;;;;;;5018795;28;20033;-78
2022/02/14 08:50:41;;;;;;;3.90;0.40;;;9.30;99.90;;;;;;5052911;28;20074;-79
2022/02/14 08:53:08;;;;;;;1.80;0.53;;;9.30;99.90;;;;;;5052937;28;20116;-83
2022/02/14 08:55:34;;;;;;;4.47;0.40;;;9.30;99.90;;;;;;5018580;28;20116;-77
2022/02/14 08:58:00;;;;;;;0.43;0.27;;;9.40;99.90;;;;;;5052888;28;20029;-77
2022/02/14 09:00:26;;;;;;;2.83;0.50;;;9.50;99.90;;;;;;5035268;28;20432;-80
2022/02/14 09:02:51;;;;;;;3.23;0.50;;;9.50;99.90;;;;;;5034921;28;20033;-77
2022/02/14 09:05:17;;;;;;;1.37;0.50;;;9.60;99.90;;;;;;5052772;28;20393;-77
2022/02/14 09:07:43;;;;;;;1.90;0.40;;;9.60;99.90;;;;;;5053174;28;20033;-77
2022/02/14 09:10:10;;;;;;;0.80;0.40;;;9.60;99.90;;;;;;5056682;28;20492;-78
2022/02/14 09:12:36;;;;;;;1.27;0.30;;;9.60;99.90;;;;;;5038446;28;20025;-77
2022/02/14 09:15:01;;;;;;;0.80;0.30;;;9.60;99.90;;;;;;5056451;28;20028;-76
2022/02/14 09:17:27;;;;;;;1.30;0.30;;;9.50;99.90;;;;;;5056192;28;20029;-78
2022/02/14 09:19:53;;;;;;;1.27;0.30;;;9.60;99.90;;;;;;5056376;28;20108;-78
2022/02/14 09:22:19;;;;;;;1.27;0.30;;;9.60;99.90;;;;;;5056200;28;20025;-77
2022/02/14 09:24:45;;;;;;;0.60;0.20;;;9.60;99.90;;;;;;5056269;28;20048;-78
2022/02/14 09:27:10;;;;;;;3.43;0.30;;;9.70;99.90;;;;;;5056458;28;20066;-79
2022/02/14 09:29:37;;;;;;;1.23;0.40;;;9.70;99.90;;;;;;5038407;28;20116;-78
2022/02/14 09:32:05;;;;;;;1.20;0.40;;;9.80;99.90;;;;;;5055951;28;20017;-83
2022/02/14 09:34:32;;;;;;;1.80;0.40;;;9.80;99.60;;;;;;5056067;28;20025;-78
2022/02/14 09:36:58;;;;;;;1.13;0.30;;;9.90;99.40;;;;;;5056177;28;20025;-77
2022/02/14 09:39:30;;;;;;;0.40;0.20;;;9.90;99.10;;;;;;5055808;28;20037;-78
2022/02/14 09:42:01;;;;;;;0.40;0.20;;;9.90;98.90;;;;;;5055917;28;20021;-78
2022/02/14 09:44:27;;;;;;;1.53;0.60;;;9.90;98.70;;;;;;5055767;28;20036;-79
2022/02/14 09:46:54;;;;;;;2.27;1.03;;;9.80;98.50;;;;;;5056046;28;20078;-79
2022/02/14 09:49:20;;;;;;;2.00;0.70;;;10.10;98.50;;;;;;5038309;28;20377;-78
2022/02/14 09:51:47;;;;;;;2.03;0.90;;;10.00;98.40;;;;;;5037773;28;20021;-79
2022/02/14 09:54:13;;;;;;;2.33;0.90;;;10.00;98.40;;;;;;5055387;28;20037;-79
2022/02/14 09:56:41;;;;;;;3.37;1.27;;;10.00;98.30;;;;;;5055758;28;20100;-85
2022/02/14 09:59:06;;;;;;;4.10;1.67;;;10.20;98.30;;;;;;5037722;28;20032;-79
2022/02/14 10:01:32;;;;;;;3.23;1.40;;;10.30;98.30;;;;;;5055319;28;20033;-79
2022/02/14 10:04:00;;;;;;;3.93;1.80;;;10.50;98.20;;;;;;5037725;28;20428;-78
2022/02/14 10:06:31;;;;;;;4.80;1.77;;;10.70;98.30;;;;;;5055756;28;20025;-81
2022/02/14 10:09:10;;;;;;;3.08;1.70;;;11.10;98.30;;;;;;5037372;28;20477;-79
2022/02/14 10:11:39;;;;;;;4.18;1.25;;;11.60;98.20;;;;;;5055540;28;20028;-79
2022/02/14 10:14:19;;;;;;;4.43;1.55;;;12.00;97.80;;;;;;5037625;28;20040;-81
2022/02/14 10:17:05;;;;;;;2.45;1.10;;;12.50;95.90;;;;;;5037273;28;20408;-81
2022/02/14 10:19:45;;;;;;;1.73;0.85;;;12.80;94.30;;;;;;5037855;28;20055;-78
2022/02/14 10:22:11;;;;;;;2.33;1.00;;;13.00;93.80;;;;;;5022962;28;20025;-81
2022/02/14 10:24:42;;;;;;;1.70;1.00;;;13.30;93.20;;;;;;5055044;28;20029;-81
2022/02/14 10:27:09;;;;;;;2.95;1.00;;;13.80;92.50;;;;;;5037536;28;20055;-79
2022/02/14 10:29:35;;;;;;;2.60;1.05;;;14.00;91.30;;;;;;5020495;28;20026;-80
2022/02/14 10:32:06;;;;;;;9.50;1.42;;;13.90;89.10;;;;;;5054943;28;20056;-79
2022/02/14 10:34:41;;;;;;;4.07;1.10;;;13.60;89.80;;;;;;5054930;28;20142;-79
2022/02/14 10:37:10;;;;;;;1.50;0.80;;;13.80;90.70;;;;;;5054625;28;20029;-78
2022/02/14 10:39:36;;;;;;;2.25;0.70;;;14.30;91.20;;;;;;5048680;28;20033;-79
2022/02/14 10:42:05;;;;;;;2.00;0.80;;;14.80;90.00;;;;;;5044812;28;20044;-79
2022/02/14 10:47:21;;;;;;;1.52;0.70;;;15.80;83.50;;;;;;5054476;28;20031;-85
2022/02/14 10:50:16;;;;;;;2.55;0.60;;;16.10;80.60;;;;;;5036681;28;20036;-83
2022/02/14 10:52:53;;;;;;;4.40;0.80;;;16.30;77.20;;;;;;5054366;28;20532;-79
2022/02/14 10:55:26;;;;;;;4.68;0.80;;;16.00;75.10;;;;;;5054564;28;20025;-84
2022/02/14 10:57:53;;;;;;;3.03;0.68;;;15.70;74.10;;;;;;5054751;28;20107;-81
2022/02/14 11:00:21;;;;;;;2.90;1.05;;;15.20;73.70;;;;;;5054278;28;20032;-81
2022/02/14 11:03:01;;;;;;;2.22;1.00;;;14.80;74.00;;;;;;5054328;28;20417;-79
2022/02/14 11:05:29;;;;;;;2.97;1.00;;;14.50;74.90;;;;;;5054044;28;20056;-79
2022/02/14 11:07:56;;;;;;;2.33;0.95;;;14.10;76.10;;;;;;5054209;28;20033;-83
2022/02/14 11:10:22;;;;;;;2.35;1.00;;;13.80;77.20;;;;;;5036043;28;20051;-79
2022/02/14 11:12:56;;;;;;;2.53;1.00;;;13.50;78.20;;;;;;5036393;28;20112;-82
2022/02/14 11:15:26;;;;;;;;;;;13.10;78.90;;;;;;5054628;28;20029;-79
2022/02/14 11:18:11;;;;;;;3.72;1.20;;;12.90;80.30;;;;;;5053872;28;19974;-78
2022/02/14 11:20:38;;;;;;;4.63;1.50;;;12.70;81.40;;;;;;5054032;28;20481;-79
2022/02/14 11:23:06;;;;;;;5.85;1.60;;;12.70;81.90;;;;;;5053991;28;20068;-78
2022/02/14 11:25:51;;;;;;;7.13;1.42;;;12.70;82.40;;;;;;5053854;28;20029;-78
2022/02/14 11:28:42;;;;;;;4.60;1.05;;;12.70;82.80;;;;;;5053720;28;20021;-79
2022/02/14 11:31:11;;;;;;;4.70;1.10;;;12.90;83.50;;;;;;5053382;28;20020;-78
2022/02/14 11:33:40;;;;;;;3.65;0.85;;;13.00;83.20;;;;;;5053612;28;20017;-78
2022/02/14 11:36:12;;;;;;;1.60;0.60;;;13.20;83.00;;;;;;5053970;28;20029;-80
2022/02/14 11:38:58;;;;;;;4.13;1.02;;;13.30;80.80;;;;;;5053606;28;20029;-79
2022/02/14 11:41:23;;;;;;;4.03;0.90;;;13.20;79.80;;;;;;5053559;28;20034;-78
2022/02/14 11:43:49;;;;;;;2.72;0.90;;;13.20;80.30;;;;;;5053495;28;20037;-78
2022/02/14 11:46:19;;;;;;;4.07;0.90;;;13.10;79.70;;;;;;5035576;28;20120;-79
2022/02/14 11:49:10;;;;;;;4.28;1.17;;;13.10;80.40;;;;;;5053389;28;20036;-78
2022/02/14 11:51:42;;;;;;;6.35;1.10;;;13.10;78.90;;;;;;5028136;28;20036;-78
2022/02/14 11:54:29;;;;;;;3.70;1.02;;;13.00;79.10;;;;;;5035221;28;20080;-78
2022/02/14 11:57:19;;;;;;;4.22;0.85;;;12.90;79.60;;;;;;5035469;28;20432;-78
2022/02/14 11:59:45;;;;;;;5.80;0.80;;;13.00;81.20;;;;;;5045163;28;20045;-79
2022/02/14 12:02:12;;;;;;;3.47;0.85;;;13.70;82.20;;;;;;5053520;28;20111;-81
2022/02/14 12:04:41;;;;;;;6.82;0.70;;;14.50;79.30;;;;;;5053202;28;20021;-79
2022/02/14 12:07:27;;;;;;;3.10;0.52;;;15.10;75.30;;;;;;5053270;28;20024;-80
2022/02/14 12:09:58;;;;;;;2.97;0.60;;;15.70;70.90;;;;;;5035324;28;20032;-81
2022/02/14 12:12:58;;;;;;;2.35;0.45;;;16.20;66.90;;;;;;5053305;28;20013;-83
2022/02/14 12:21:00;;;;;;;2.35;0.40;;;16.90;61.80;;;;;;5053040;28;20492;-79
2022/02/14 12:23:32;;;;;;;3.45;0.52;;;16.50;61.70;;;;;;5052891;28;20537;-79
2022/02/14 12:25:58;;;;;;;3.53;0.43;;;16.60;63.00;;;;;;5035250;28;20025;-80
2022/02/14 12:28:24;;;;;;;2.88;0.60;;;16.60;62.50;;;;;;5035226;28;20116;-79
2022/02/14 12:30:51;;;;;;;4.35;0.80;;;16.40;60.60;;;;;;5053003;28;20096;-79
2022/02/14 12:33:19;;;;;;;2.25;0.57;;;16.10;60.80;;;;;;5035016;28;20044;-79
2022/02/14 12:35:52;;;;;;;3.55;0.80;;;15.70;61.80;;;;;;5035004;28;20560;-79
2022/02/14 12:38:19;;;;;;;4.78;0.80;;;15.10;62.80;;;;;;5053023;28;20025;-79
2022/02/14 12:41:04;;;;;;;3.50;0.55;;;14.60;63.80;;;;;;5053045;28;20108;-81
2022/02/14 12:43:38;;;;;;;7.50;0.90;;;14.30;64.60;;;;;;5055013;28;20104;-81
2022/02/14 12:46:12;;;;;;;2.60;0.55;;;13.80;65.60;;;;;;5057421;28;20056;-78
2022/02/14 12:48:41;;;;;;;3.85;0.30;;;13.90;67.20;;;;;;5057119;28;20029;-80
2022/02/14 12:51:19;;;;;;;4.32;0.77;;;14.40;66.50;;;;;;5056718;28;20031;-79
2022/02/14 12:53:52;;;;;;;3.80;0.45;;;15.00;66.40;;;;;;5056473;28;20059;-78
2022/02/14 12:56:20;;;;;;;2.20;0.40;;;15.60;62.80;;;;;;5056733;28;20373;-80
2022/02/14 12:59:00;;;;;;;5.78;0.43;;;15.70;60.60;;;;;;5058930;28;20036;-79
2022/02/14 13:01:29;;;;;;;2.53;0.40;;;15.80;60.30;;;;;;5038702;28;20030;-82